AFR4091 KMCO-LFPG
Flight info
| Callsign | AFR4091 |
|---|---|
| Flight time | N/A |
| Altitude | 37000 |
| Route | FATHE4 VIYAP Q87 JROSS Q135 RAPZZ Q135 RREGG EARZZ Q131 KALDA Q167 TOPRR VALCO KYSKY Q430 FLAPE KURLY KANNI N97B SUPRY 4650N 4840N 4830N 4820N 4815N UMLER UN734 UMOXA ADSET UT512 ANG UN741 KEPER |
| Aircraft | A359/H-SABDE2E3GHIJ1J2J3J4J5M1P2RWXYZ/LB1D1 |
Departure
| Time | 2026-04-25 13:22 |
|---|---|
| Airport | Orlando International Airport (KMCO) |
Arrival
| Time | N/A |
|---|---|
| Airport | Charles de Gaulle International Airport (LFPG) |
| Time | Latitude | Longitude | Altitude | Speed | Heading |
|---|---|---|---|---|---|
| 2026-04-25 10:58 | 28.43632 | -81.31451 | 106 ft | 0 kts | 236° |
| 2026-04-25 10:59 | 28.43619 | -81.31473 | 106 ft | 0 kts | 236° |
| 2026-04-25 10:59 | 28.43632 | -81.31451 | 106 ft | 0 kts | 236° |
| 2026-04-25 12:49 | 28.43642 | -81.31435 | 106 ft | 4 kts | 236° |
| 2026-04-25 12:49 | 28.43657 | -81.31410 | 106 ft | 4 kts | 236° |
| 2026-04-25 12:49 | 28.43669 | -81.31390 | 105 ft | 4 kts | 238° |
| 2026-04-25 12:50 | 28.43680 | -81.31363 | 106 ft | 4 kts | 255° |
| 2026-04-25 12:50 | 28.43685 | -81.31333 | 105 ft | 4 kts | 270° |
| 2026-04-25 12:50 | 28.43684 | -81.31305 | 105 ft | 1 kts | 271° |
| 2026-04-25 12:54 | 28.43684 | -81.31313 | 108 ft | 4 kts | 270° |
| 2026-04-25 12:55 | 28.43685 | -81.31360 | 105 ft | 7 kts | 280° |
| 2026-04-25 12:55 | 28.43701 | -81.31391 | 105 ft | 7 kts | 312° |
| 2026-04-25 12:55 | 28.43766 | -81.31429 | 107 ft | 9 kts | 336° |
| 2026-04-25 12:55 | 28.43829 | -81.31458 | 105 ft | 9 kts | 347° |
| 2026-04-25 12:56 | 28.43895 | -81.31456 | 106 ft | 9 kts | 17° |
| 2026-04-25 12:56 | 28.43924 | -81.31401 | 105 ft | 8 kts | 82° |
| 2026-04-25 12:56 | 28.43929 | -81.31333 | 107 ft | 9 kts | 88° |
| 2026-04-25 12:56 | 28.43933 | -81.31282 | 111 ft | 3 kts | 86° |
| 2026-04-25 12:57 | 28.43934 | -81.31264 | 114 ft | 0 kts | 86° |
| 2026-04-25 12:57 | 28.43935 | -81.31249 | 115 ft | 7 kts | 86° |
| 2026-04-25 12:57 | 28.43940 | -81.31150 | 117 ft | 15 kts | 86° |
| 2026-04-25 12:57 | 28.43943 | -81.31044 | 124 ft | 12 kts | 88° |
| 2026-04-25 12:58 | 28.43944 | -81.30880 | 117 ft | 18 kts | 91° |
| 2026-04-25 12:58 | 28.43943 | -81.30848 | 126 ft | 0 kts | 93° |
| 2026-04-25 13:00 | 28.43940 | -81.30797 | 129 ft | 4 kts | 94° |
| 2026-04-25 13:00 | 28.43939 | -81.30781 | 125 ft | 7 kts | 95° |
| 2026-04-25 13:00 | 28.43930 | -81.30650 | 125 ft | 13 kts | 95° |
| 2026-04-25 13:00 | 28.43920 | -81.30487 | 106 ft | 24 kts | 93° |
| 2026-04-25 13:01 | 28.43912 | -81.30311 | 105 ft | 21 kts | 93° |
| 2026-04-25 13:01 | 28.43904 | -81.30142 | 108 ft | 21 kts | 93° |
| 2026-04-25 13:01 | 28.43889 | -81.29980 | 108 ft | 18 kts | 109° |
| 2026-04-25 13:01 | 28.43821 | -81.29869 | 107 ft | 18 kts | 139° |
| 2026-04-25 13:02 | 28.43744 | -81.29820 | 108 ft | 11 kts | 160° |
| 2026-04-25 13:02 | 28.43704 | -81.29811 | 109 ft | 0 kts | 173° |
| 2026-04-25 13:04 | 28.43703 | -81.29810 | 108 ft | 1 kts | 173° |
| 2026-04-25 13:04 | 28.43673 | -81.29808 | 108 ft | 9 kts | 176° |
| 2026-04-25 13:05 | 28.43589 | -81.29804 | 109 ft | 13 kts | 169° |
| 2026-04-25 13:05 | 28.43551 | -81.29724 | 107 ft | 13 kts | 90° |
| 2026-04-25 13:05 | 28.43551 | -81.29620 | 107 ft | 14 kts | 90° |
| 2026-04-25 13:05 | 28.43551 | -81.29516 | 109 ft | 13 kts | 90° |
| 2026-04-25 13:06 | 28.43555 | -81.29416 | 110 ft | 13 kts | 87° |
| 2026-04-25 13:06 | 28.43558 | -81.29306 | 111 ft | 14 kts | 79° |
| 2026-04-25 13:06 | 28.43637 | -81.29262 | 107 ft | 14 kts | 1° |
| 2026-04-25 13:06 | 28.43743 | -81.29263 | 106 ft | 16 kts | 358° |
| 2026-04-25 13:07 | 28.43857 | -81.29257 | 107 ft | 16 kts | 17° |
| 2026-04-25 13:07 | 28.43875 | -81.29220 | 106 ft | 6 kts | 94° |
| 2026-04-25 13:07 | 28.43870 | -81.29141 | 104 ft | 14 kts | 91° |
| 2026-04-25 13:07 | 28.43871 | -81.29031 | 110 ft | 15 kts | 89° |
| 2026-04-25 13:08 | 28.43872 | -81.28881 | 110 ft | 24 kts | 90° |
| 2026-04-25 13:08 | 28.43874 | -81.28690 | 110 ft | 24 kts | 89° |
| 2026-04-25 13:08 | 28.43875 | -81.28509 | 111 ft | 18 kts | 89° |
| 2026-04-25 13:08 | 28.43886 | -81.28400 | 111 ft | 11 kts | 52° |
| 2026-04-25 13:09 | 28.43958 | -81.28378 | 112 ft | 11 kts | 358° |
| 2026-04-25 13:09 | 28.44037 | -81.28380 | 113 ft | 12 kts | 359° |
| 2026-04-25 13:09 | 28.44131 | -81.28382 | 109 ft | 15 kts | 359° |
| 2026-04-25 13:09 | 28.44234 | -81.28383 | 111 ft | 12 kts | 0° |
| 2026-04-25 13:10 | 28.44308 | -81.28383 | 110 ft | 7 kts | 0° |
| 2026-04-25 13:10 | 28.44342 | -81.28368 | 109 ft | 0 kts | 41° |
| 2026-04-25 13:13 | 28.44343 | -81.28367 | 109 ft | 2 kts | 42° |
| 2026-04-25 13:13 | 28.44358 | -81.28319 | 108 ft | 9 kts | 86° |
| 2026-04-25 13:13 | 28.44334 | -81.28262 | 108 ft | 7 kts | 160° |
| 2026-04-25 13:13 | 28.44299 | -81.28258 | 111 ft | 0 kts | 179° |
| 2026-04-25 13:21 | 28.44287 | -81.28258 | 110 ft | 12 kts | 179° |
| 2026-04-25 13:21 | 28.43951 | -81.28254 | 111 ft | 84 kts | 180° |
| 2026-04-25 13:21 | 28.43144 | -81.28246 | 105 ft | 146 kts | 180° |
| 2026-04-25 13:21 | 28.42018 | -81.28253 | 595 ft | 158 kts | 181° |
| 2026-04-25 13:22 | 28.40988 | -81.27998 | 1310 ft | 154 kts | 154° |
| 2026-04-25 13:22 | 28.40354 | -81.27013 | 1780 ft | 162 kts | 102° |
| 2026-04-25 13:22 | 28.40476 | -81.25721 | 1994 ft | 171 kts | 78° |
| 2026-04-25 13:23 | 28.41334 | -81.23123 | 2311 ft | 187 kts | 48° |
| 2026-04-25 13:23 | 28.42499 | -81.22428 | 2471 ft | 192 kts | 6° |
| 2026-04-25 13:23 | 28.43839 | -81.22577 | 2664 ft | 197 kts | 347° |
| 2026-04-25 13:23 | 28.45206 | -81.22915 | 2844 ft | 205 kts | 348° |
| 2026-04-25 13:24 | 28.46645 | -81.23220 | 2956 ft | 216 kts | 351° |
| 2026-04-25 13:24 | 28.48166 | -81.23442 | 3141 ft | 224 kts | 353° |
| 2026-04-25 13:24 | 28.49736 | -81.23624 | 3344 ft | 230 kts | 354° |
| 2026-04-25 13:24 | 28.51328 | -81.23816 | 3516 ft | 236 kts | 353° |
| 2026-04-25 13:25 | 28.52995 | -81.24089 | 3742 ft | 241 kts | 351° |
| 2026-04-25 13:25 | 28.54672 | -81.24395 | 3916 ft | 248 kts | 352° |
| 2026-04-25 13:25 | 28.56404 | -81.24660 | 4060 ft | 255 kts | 352° |
| 2026-04-25 13:25 | 28.58158 | -81.24918 | 4179 ft | 262 kts | 352° |
| 2026-04-25 13:26 | 28.59980 | -81.25189 | 4360 ft | 265 kts | 352° |
| 2026-04-25 13:26 | 28.61815 | -81.25464 | 4588 ft | 266 kts | 352° |
| 2026-04-25 13:26 | 28.63658 | -81.25741 | 4808 ft | 268 kts | 352° |
| 2026-04-25 13:26 | 28.65508 | -81.26019 | 5040 ft | 268 kts | 352° |
| 2026-04-25 13:27 | 28.67365 | -81.26300 | 5255 ft | 270 kts | 352° |
| 2026-04-25 13:27 | 28.69228 | -81.26582 | 5507 ft | 270 kts | 352° |
| 2026-04-25 13:27 | 28.71089 | -81.26865 | 5757 ft | 270 kts | 352° |
| 2026-04-25 13:27 | 28.72966 | -81.27150 | 5948 ft | 273 kts | 352° |
| 2026-04-25 13:28 | 28.74849 | -81.27435 | 6152 ft | 274 kts | 352° |
| 2026-04-25 13:28 | 28.76127 | -81.27629 | 6305 ft | 275 kts | 352° |
| 2026-04-25 13:28 | 28.77782 | -81.27880 | 6572 ft | 276 kts | 352° |